Atlantic, Maine
Current Conditions -  °F | °C
As of 5:15 PM on Wednesday 28 Jan 2015 (Local Time) from KBHB Reporting Station
Few Clouds Few Clouds  
Wind Chill:   Ceiling: Unl
Heat Index: 18°   Visibility: 10mi
Dew Point: 16°   Wind: 7mph
Humidity: 93%   Direction: 330°NNW
Pressure: 29.98"   Gusts: NA
Location:  44.1716°N, 68.4245°W
Report Text: KBHB 282215Z 33006KT 10SM FEW037 M08/M09 A2998 RMK AO1
Loading
Personal Weather Stations






























Interactive Weather Map New forecast layout! Learn more

10-Day Weather Forecast

Advertisements
Track Severe Weather on mobile